Time;durP1;ratioP1;P1;durP2;ratioP2;P2;SDS_P1;SDS_P2;PMS_P1;PMS_P2;Temp;Humidity;BMP_temperature;BMP_pressure;BME280_temperature;BME280_humidity;BME280_pressure;Samples;Min_cycle;Max_cycle;Signal;HPM_P1;HPM_P2
2022/10/04 00:00:27;;;;;;;10.05;3.83;;;12.50;99.90;;;;;;5013275;28;20048;-73
2022/10/04 00:02:59;;;;;;;8.80;3.67;;;12.50;99.90;;;;;;5030856;28;20445;-73
2022/10/04 00:05:27;;;;;;;10.55;3.95;;;12.40;99.90;;;;;;5013402;28;20044;-73
2022/10/04 00:08:01;;;;;;;10.20;4.35;;;12.40;99.90;;;;;;5030734;28;20048;-73
2022/10/04 00:10:32;;;;;;;11.98;4.13;;;12.40;99.90;;;;;;5030715;28;20052;-73
2022/10/04 00:13:05;;;;;;;12.82;4.05;;;12.40;99.90;;;;;;5030718;28;20036;-73
2022/10/04 00:15:38;;;;;;;8.90;3.92;;;12.30;99.90;;;;;;5030836;28;20541;-73
2022/10/04 00:18:10;;;;;;;10.55;4.00;;;12.30;99.90;;;;;;5030853;28;20163;-73
2022/10/04 00:20:54;;;;;;;10.30;4.60;;;12.40;99.90;;;;;;5030582;28;20059;-73
2022/10/04 00:23:23;;;;;;;11.73;5.05;;;12.40;99.90;;;;;;5030588;28;20041;-73
2022/10/04 00:25:55;;;;;;;13.07;4.80;;;12.40;99.90;;;;;;5030652;28;20025;-73
2022/10/04 00:28:24;;;;;;;10.82;4.78;;;12.40;99.90;;;;;;5030704;28;20033;-73
2022/10/04 00:31:16;;;;;;;7.55;4.00;;;12.40;99.90;;;;;;5012790;28;20025;-73
2022/10/04 00:33:44;;;;;;;6.95;3.92;;;12.40;99.90;;;;;;5030718;28;20044;-73
2022/10/04 00:36:23;;;;;;;11.82;5.05;;;12.40;99.90;;;;;;5030507;28;20064;-73
2022/10/04 00:39:04;;;;;;;16.73;4.88;;;12.50;99.90;;;;;;5030323;28;20513;-73
2022/10/04 00:41:47;;;;;;;14.57;4.28;;;12.50;99.90;;;;;;5012939;28;20029;-73
2022/10/04 00:44:37;;;;;;;9.50;4.32;;;12.50;99.90;;;;;;5032291;28;20049;-73
2022/10/04 00:47:18;;;;;;;12.90;4.47;;;12.60;99.90;;;;;;5034393;28;20474;-73
2022/10/04 00:49:48;;;;;;;13.68;4.20;;;12.60;99.90;;;;;;5016708;28;20038;-73
2022/10/04 00:52:22;;;;;;;;;;;12.60;99.90;;;;;;5034788;28;20379;-73
2022/10/04 00:54:56;;;;;;;9.68;4.47;;;12.60;99.90;;;;;;5034418;28;20012;-73
2022/10/04 00:57:28;;;;;;;8.95;4.47;;;12.60;99.90;;;;;;5034241;28;20596;-73
2022/10/04 01:00:05;;;;;;;10.85;4.82;;;12.60;99.90;;;;;;5034300;28;20112;-73
2022/10/04 01:02:44;;;;;;;10.90;4.78;;;12.60;99.90;;;;;;5016690;28;20029;-72
2022/10/04 01:05:20;;;;;;;11.43;4.20;;;12.50;99.90;;;;;;5034323;28;20363;-73
2022/10/04 01:08:02;;;;;;;8.25;4.72;;;12.40;99.90;;;;;;5034001;28;20030;-72
2022/10/04 01:10:32;;;;;;;9.68;4.45;;;12.40;99.90;;;;;;5016511;28;20522;-73
2022/10/04 01:13:04;;;;;;;10.88;4.70;;;12.40;99.90;;;;;;5034126;28;20037;-72
2022/10/04 01:15:54;;;;;;;8.57;3.97;;;12.40;99.90;;;;;;5034113;28;20037;-72
2022/10/04 01:18:19;;;;;;;8.73;4.78;;;12.40;99.90;;;;;;5023473;28;20100;-72
2022/10/04 01:20:57;;;;;;;12.63;5.10;;;12.40;99.90;;;;;;5033889;28;20037;-73
2022/10/04 01:23:48;;;;;;;10.05;4.63;;;12.40;99.90;;;;;;5016352;28;20037;-73
2022/10/04 01:26:29;;;;;;;13.55;4.50;;;12.30;99.90;;;;;;4981167;28;20072;-73
2022/10/04 01:29:04;;;;;;;12.18;4.82;;;12.20;99.90;;;;;;5033970;28;20162;-73
2022/10/04 01:31:33;;;;;;;11.30;4.53;;;12.20;99.90;;;;;;5016019;28;20035;-73
2022/10/04 01:34:00;;;;;;;10.18;4.40;;;12.20;99.90;;;;;;5016206;28;20030;-73
2022/10/04 01:36:27;;;;;;;8.43;4.57;;;12.20;99.90;;;;;;5033641;28;20375;-73
2022/10/04 01:38:54;;;;;;;12.13;5.18;;;12.30;99.90;;;;;;5033634;28;20692;-73
2022/10/04 01:41:30;;;;;;;9.45;4.55;;;12.30;99.90;;;;;;5033490;28;20496;-72
2022/10/04 01:43:59;;;;;;;9.32;4.60;;;12.30;99.90;;;;;;5033436;28;20112;-73
2022/10/04 01:46:30;;;;;;;;;;;12.30;99.90;;;;;;5033902;28;20030;-72
2022/10/04 01:48:59;;;;;;;9.50;4.28;;;12.30;99.90;;;;;;5033476;28;19951;-72
2022/10/04 01:51:29;;;;;;;9.95;4.40;;;12.20;99.90;;;;;;5033349;28;20025;-72
2022/10/04 01:54:05;;;;;;;8.38;3.97;;;12.20;99.90;;;;;;5033477;28;20033;-72
2022/10/04 01:56:42;;;;;;;8.68;4.47;;;12.10;99.90;;;;;;5032294;28;20108;-72
2022/10/04 01:59:18;;;;;;;9.77;4.28;;;12.20;99.90;;;;;;5033177;28;20041;-72
2022/10/04 02:01:51;;;;;;;11.52;4.78;;;12.20;99.90;;;;;;5015658;28;20025;-72
2022/10/04 02:04:20;;;;;;;11.98;4.28;;;12.20;99.90;;;;;;5033288;28;20156;-72
2022/10/04 02:06:53;;;;;;;6.85;3.92;;;12.20;99.90;;;;;;5033101;28;20075;-72
2022/10/04 02:09:25;;;;;;;12.95;5.00;;;12.20;99.90;;;;;;5033268;28;20029;-72
2022/10/04 02:11:53;;;;;;;16.35;6.00;;;12.10;99.90;;;;;;5033313;28;20033;-73
2022/10/04 02:14:24;;;;;;;9.85;4.60;;;12.00;99.90;;;;;;5033590;28;20120;-72
2022/10/04 02:16:52;;;;;;;10.45;5.30;;;12.00;99.90;;;;;;5032824;28;20057;-72
2022/10/04 02:19:31;;;;;;;16.33;5.20;;;11.90;99.90;;;;;;5032633;28;20033;-73
2022/10/04 02:21:57;;;;;;;9.05;4.20;;;11.90;99.90;;;;;;5014913;28;20133;-72
2022/10/04 02:24:24;;;;;;;9.30;4.60;;;11.90;99.90;;;;;;5032657;28;20033;-72
2022/10/04 02:26:51;;;;;;;9.15;5.03;;;11.90;99.90;;;;;;5032510;28;20021;-73
2022/10/04 02:29:19;;;;;;;13.95;5.05;;;11.80;99.90;;;;;;5032626;28;20060;-72
2022/10/04 02:34:31;;;;;;;7.55;4.00;;;12.00;99.90;;;;;;5032507;28;20372;-72
2022/10/04 02:37:02;;;;;;;9.57;4.43;;;12.00;99.90;;;;;;5032317;28;20112;-72
2022/10/04 02:39:35;;;;;;;10.90;4.50;;;12.00;99.90;;;;;;5032138;28;20483;-72
2022/10/04 02:42:30;;;;;;;9.77;4.95;;;12.00;99.90;;;;;;5032204;28;20033;-72
2022/10/04 02:45:15;;;;;;;8.07;4.60;;;11.90;99.90;;;;;;5032205;28;20034;-73
2022/10/04 02:47:50;;;;;;;10.55;4.60;;;11.90;99.90;;;;;;5032120;28;20100;-72
2022/10/04 02:50:44;;;;;;;9.15;4.72;;;11.90;99.90;;;;;;5031913;28;20021;-72
2022/10/04 02:53:25;;;;;;;11.05;4.78;;;11.90;99.90;;;;;;5032187;28;20112;-72
2022/10/04 02:55:53;;;;;;;10.07;4.50;;;12.00;99.90;;;;;;5030636;28;20033;-72
2022/10/04 02:58:23;;;;;;;11.48;4.60;;;12.00;99.90;;;;;;5032015;28;20044;-72
2022/10/04 03:00:55;;;;;;;10.63;4.88;;;12.00;99.90;;;;;;5030502;28;20494;-72
2022/10/04 03:03:30;;;;;;;14.55;5.47;;;11.90;99.90;;;;;;5031941;28;20033;-72
2022/10/04 03:06:09;;;;;;;10.30;5.30;;;11.90;99.90;;;;;;5031708;28;20068;-72
2022/10/04 03:08:46;;;;;;;12.50;4.70;;;11.90;99.90;;;;;;5031660;28;20104;-72
2022/10/04 03:11:14;;;;;;;10.75;4.88;;;11.80;99.90;;;;;;5031605;28;20491;-73
2022/10/04 03:13:45;;;;;;;10.38;4.47;;;11.80;99.90;;;;;;5031644;28;20060;-70
2022/10/04 03:16:12;;;;;;;9.55;5.25;;;11.80;99.90;;;;;;5030296;28;20405;-71
2022/10/04 03:18:38;;;;;;;16.17;5.63;;;11.80;99.90;;;;;;5031099;28;20037;-72
2022/10/04 03:21:07;;;;;;;11.03;4.87;;;11.80;99.90;;;;;;5030964;28;20033;-72
2022/10/04 03:23:34;;;;;;;11.98;5.18;;;11.80;99.90;;;;;;5030589;28;20116;-74
2022/10/04 03:26:08;;;;;;;13.70;5.03;;;11.80;99.90;;;;;;5027592;28;20036;-81
2022/10/04 03:28:36;;;;;;;12.05;5.25;;;11.80;99.90;;;;;;5028913;28;20021;-73
2022/10/04 03:31:02;;;;;;;8.82;5.30;;;11.90;99.90;;;;;;5031528;28;20342;-69
2022/10/04 03:33:29;;;;;;;8.77;4.97;;;11.90;99.90;;;;;;5030429;28;20034;-72
2022/10/04 03:35:59;;;;;;;9.85;5.18;;;12.00;99.90;;;;;;5029125;28;20033;-70
2022/10/04 03:38:27;;;;;;;12.13;5.63;;;12.00;99.90;;;;;;5030581;28;20036;-72
2022/10/04 03:40:58;;;;;;;10.20;4.95;;;12.00;99.90;;;;;;5029057;28;20034;-72
2022/10/04 03:43:35;;;;;;;12.27;5.00;;;12.00;99.90;;;;;;5028498;28;20040;-71
2022/10/04 03:46:04;;;;;;;12.63;5.32;;;12.00;99.90;;;;;;5029700;28;20037;-71
2022/10/04 03:48:32;;;;;;;12.13;5.15;;;12.00;99.90;;;;;;5029991;28;20033;-72
2022/10/04 03:50:59;;;;;;;12.77;5.13;;;12.00;99.90;;;;;;5029607;28;20060;-72
2022/10/04 03:53:35;;;;;;;10.10;4.80;;;11.90;99.90;;;;;;5029902;28;20322;-72
2022/10/04 03:56:07;;;;;;;10.85;5.22;;;11.90;99.90;;;;;;5029157;28;20029;-72
2022/10/04 03:58:33;;;;;;;10.02;5.00;;;11.90;99.90;;;;;;5029551;28;20494;-72
2022/10/04 04:01:14;;;;;;;9.50;4.93;;;11.90;99.90;;;;;;5029391;28;20037;-72
2022/10/04 04:03:51;;;;;;;12.15;5.00;;;11.90;99.90;;;;;;5029804;28;20033;-71
2022/10/04 04:06:19;;;;;;;12.02;5.38;;;11.90;99.90;;;;;;5029676;28;20037;-71
2022/10/04 04:08:50;;;;;;;12.60;5.10;;;11.90;99.90;;;;;;5029643;28;20496;-72
2022/10/04 04:11:25;;;;;;;15.20;6.78;;;11.90;99.90;;;;;;5011245;28;20688;-72
2022/10/04 04:13:55;;;;;;;14.52;6.05;;;11.90;99.90;;;;;;5029554;28;20378;-71
2022/10/04 04:16:24;;;;;;;10.87;5.57;;;11.80;99.90;;;;;;5029418;28;20032;-71
2022/10/04 04:18:53;;;;;;;14.90;6.28;;;11.80;99.90;;;;;;5011444;28;20040;-72
2022/10/04 04:21:23;;;;;;;12.67;5.53;;;11.80;99.90;;;;;;5029625;28;20038;-72
2022/10/04 04:24:00;;;;;;;9.53;5.47;;;11.90;99.90;;;;;;5012108;28;20047;-71
2022/10/04 04:26:38;;;;;;;12.85;5.43;;;11.80;99.90;;;;;;5029173;28;20026;-70
2022/10/04 04:29:23;;;;;;;13.30;5.70;;;11.80;99.90;;;;;;5011490;28;20029;-72
2022/10/04 04:31:54;;;;;;;10.37;5.40;;;11.80;99.90;;;;;;5029786;28;20462;-72
2022/10/04 04:34:28;;;;;;;10.80;5.88;;;11.80;99.90;;;;;;5038660;28;20041;-72
2022/10/04 04:37:02;;;;;;;11.32;5.05;;;11.70;99.90;;;;;;5044852;28;20509;-71
2022/10/04 04:39:33;;;;;;;13.20;6.43;;;11.70;99.90;;;;;;5049427;28;20029;-72
2022/10/04 04:42:01;;;;;;;15.20;6.30;;;11.70;99.90;;;;;;5048712;28;20583;-72
2022/10/04 04:44:28;;;;;;;12.38;6.13;;;11.60;99.90;;;;;;5049572;28;20109;-71
2022/10/04 04:46:55;;;;;;;11.70;6.47;;;11.70;99.90;;;;;;5048751;28;20422;-71
2022/10/04 04:49:22;;;;;;;15.30;6.83;;;11.70;99.90;;;;;;5049363;28;20470;-71
2022/10/04 04:51:50;;;;;;;11.60;5.50;;;11.60;99.90;;;;;;5048949;28;20196;-71
2022/10/04 04:54:22;;;;;;;10.03;5.23;;;11.60;99.90;;;;;;5049449;28;20029;-71
2022/10/04 04:56:51;;;;;;;11.63;5.63;;;11.70;99.90;;;;;;5048695;28;20034;-71
2022/10/04 04:59:21;;;;;;;10.70;5.38;;;11.70;99.90;;;;;;5049248;28;20073;-70
2022/10/04 05:01:48;;;;;;;11.10;5.88;;;11.70;99.90;;;;;;5049556;28;20041;-71
2022/10/04 05:04:21;;;;;;;15.97;6.90;;;11.80;99.90;;;;;;5049438;28;20112;-71
2022/10/04 05:07:33;;;;;;;12.60;5.50;;;11.70;99.90;;;;;;5072486;22;20211;-87
2022/10/04 05:09:59;;;;;;;10.00;5.63;;;11.70;99.90;;;;;;5031111;28;20029;-85
2022/10/04 05:12:25;;;;;;;15.30;5.63;;;11.70;99.90;;;;;;5030117;28;20366;-85
2022/10/04 05:14:53;;;;;;;10.57;5.70;;;11.60;99.90;;;;;;5014636;28;20064;-85
2022/10/04 05:17:25;;;;;;;14.73;6.33;;;11.60;99.90;;;;;;5048434;28;20021;-85
2022/10/04 05:19:58;;;;;;;13.00;5.77;;;11.60;99.90;;;;;;5049118;28;20091;-85
2022/10/04 05:22:25;;;;;;;12.23;6.07;;;11.60;99.90;;;;;;5030443;28;20120;-86
2022/10/04 05:25:01;;;;;;;17.97;6.83;;;11.50;99.90;;;;;;5014609;28;20032;-85
2022/10/04 05:27:39;;;;;;;11.90;5.47;;;11.60;99.90;;;;;;5048318;28;20037;-85
2022/10/04 05:30:32;;;;;;;13.17;6.03;;;11.60;99.90;;;;;;5048794;28;20029;-86
2022/10/04 05:33:13;;;;;;;11.30;5.30;;;11.60;99.90;;;;;;5052425;28;20107;-85
2022/10/04 05:36:00;;;;;;;14.53;5.97;;;11.60;99.90;;;;;;5052645;28;20029;-85
2022/10/04 05:39:03;;;;;;;15.55;6.18;;;11.60;99.90;;;;;;5052326;28;20450;-85
2022/10/04 05:41:35;;;;;;;11.57;5.83;;;11.50;99.90;;;;;;5051522;28;20040;-85
2022/10/04 05:44:16;;;;;;;11.30;5.40;;;11.50;99.90;;;;;;5034269;28;20501;-85
2022/10/04 05:47:04;;;;;;;13.37;5.87;;;11.40;99.90;;;;;;5031361;28;20037;-91
2022/10/04 05:49:39;;;;;;;10.40;5.47;;;11.40;99.90;;;;;;5051078;28;20102;-84
2022/10/04 05:52:24;;;;;;;12.57;6.40;;;11.40;99.90;;;;;;5033325;28;20033;-86
2022/10/04 05:55:41;;;;;;;13.53;6.67;;;11.50;99.90;;;;;;5052084;28;20126;-86
2022/10/04 05:58:18;;;;;;;16.77;6.30;;;11.70;99.90;;;;;;5061595;22;20101;-73
2022/10/04 06:01:02;;;;;;;13.53;5.50;;;12.00;99.90;;;;;;5033466;28;20402;-71
2022/10/04 06:03:37;;;;;;;13.03;5.47;;;12.00;99.90;;;;;;5069836;28;20488;-71
2022/10/04 06:06:11;;;;;;;11.97;6.10;;;11.90;99.90;;;;;;5062841;28;20033;-71
2022/10/04 06:08:58;;;;;;;11.20;6.33;;;11.80;99.90;;;;;;5052009;28;20082;-71
2022/10/04 06:11:47;;;;;;;10.88;5.70;;;11.70;99.90;;;;;;5051369;28;20028;-71
2022/10/04 06:14:37;;;;;;;11.00;5.90;;;11.60;99.90;;;;;;5051932;28;20084;-75
2022/10/04 06:17:21;;;;;;;10.30;5.63;;;11.60;99.90;;;;;;5051669;28;20049;-72
2022/10/04 06:20:09;;;;;;;10.47;5.60;;;11.50;99.90;;;;;;5033392;28;20043;-73
2022/10/04 06:22:43;;;;;;;13.45;6.07;;;11.60;99.90;;;;;;5050682;28;20036;-73
2022/10/04 06:25:25;;;;;;;14.33;5.57;;;11.50;99.90;;;;;;5050480;28;20031;-73
2022/10/04 06:28:18;;;;;;;14.27;5.77;;;11.50;99.90;;;;;;5033042;28;20130;-73
2022/10/04 06:31:05;;;;;;;14.52;5.60;;;11.50;99.90;;;;;;5050808;28;20032;-72
2022/10/04 06:33:45;;;;;;;15.63;5.80;;;11.50;99.90;;;;;;5051107;28;20055;-73
2022/10/04 06:36:39;;;;;;;13.70;6.00;;;11.50;99.90;;;;;;5050636;28;20056;-72
2022/10/04 06:39:43;;;;;;;13.30;6.10;;;11.50;99.90;;;;;;5051512;28;20044;-74
2022/10/04 06:42:32;;;;;;;12.50;6.10;;;11.60;99.90;;;;;;5049031;28;20040;-71
2022/10/04 06:45:10;;;;;;;13.73;5.75;;;11.60;99.90;;;;;;5017018;28;20491;-72
2022/10/04 06:47:53;;;;;;;15.32;6.15;;;11.70;99.90;;;;;;5051672;28;20064;-72
2022/10/04 06:50:43;;;;;;;12.25;6.15;;;11.70;99.90;;;;;;5032894;28;20119;-72
2022/10/04 06:53:19;;;;;;;13.33;6.53;;;11.70;99.90;;;;;;5051426;28;20025;-75
2022/10/04 06:56:04;;;;;;;14.80;6.53;;;11.70;99.90;;;;;;5033536;28;20107;-70
2022/10/04 06:58:48;;;;;;;12.73;5.20;;;11.70;99.90;;;;;;5051603;28;20097;-72
2022/10/04 07:01:35;;;;;;;11.98;5.68;;;11.80;99.90;;;;;;5050885;28;20036;-71
2022/10/04 07:04:08;;;;;;;14.13;5.72;;;11.90;99.90;;;;;;5050917;28;20041;-71
2022/10/04 07:07:33;;;;;;;11.07;5.73;;;11.90;99.90;;;;;;5050221;28;20074;-70
2022/10/04 07:10:10;;;;;;;11.25;5.70;;;12.00;99.90;;;;;;5037970;28;20096;-70
2022/10/04 07:12:41;;;;;;;11.07;5.60;;;12.10;99.90;;;;;;5050327;28;20630;-70
2022/10/04 07:15:23;;;;;;;13.37;5.30;;;12.10;99.90;;;;;;5050021;28;20041;-70
2022/10/04 07:17:52;;;;;;;10.77;5.83;;;12.10;99.90;;;;;;5032303;28;20024;-72
2022/10/04 07:20:24;;;;;;;9.30;5.75;;;12.10;99.90;;;;;;5049910;28;20059;-72
2022/10/04 07:22:59;;;;;;;10.32;5.35;;;12.10;99.90;;;;;;5050174;28;20036;-72
2022/10/04 07:25:35;;;;;;;10.30;5.38;;;12.10;99.90;;;;;;5031824;28;20025;-72
2022/10/04 07:31:13;;;;;;;10.32;5.15;;;12.20;99.90;;;;;;5050016;28;20041;-72
2022/10/04 07:33:52;;;;;;;11.90;5.17;;;12.30;99.90;;;;;;5023086;28;20035;-72
2022/10/04 07:36:24;;;;;;;10.60;4.63;;;12.30;99.90;;;;;;5032915;28;20037;-72
2022/10/04 07:38:58;;;;;;;10.35;5.50;;;12.30;99.90;;;;;;5016507;28;20089;-72
2022/10/04 07:41:44;;;;;;;13.57;5.30;;;12.40;99.90;;;;;;5050366;28;20062;-72
2022/10/04 07:44:23;;;;;;;9.45;4.70;;;12.40;99.90;;;;;;5050991;28;20036;-72
2022/10/04 07:47:19;;;;;;;12.48;5.53;;;12.40;99.90;;;;;;5049426;28;20040;-72
2022/10/04 07:49:48;;;;;;;15.70;6.25;;;12.50;99.90;;;;;;5049715;28;20021;-72
2022/10/04 07:52:22;;;;;;;10.00;5.50;;;12.50;99.90;;;;;;5031704;28;20114;-72
2022/10/04 07:55:01;;;;;;;12.55;4.60;;;12.50;99.90;;;;;;5049086;28;20029;-72
2022/10/04 07:57:52;;;;;;;11.27;5.03;;;12.50;99.90;;;;;;5049222;28;20040;-71
2022/10/04 08:00:36;;;;;;;9.60;5.53;;;12.40;99.90;;;;;;5049724;28;20059;-70
2022/10/04 08:03:30;;;;;;;12.13;5.97;;;12.40;99.90;;;;;;5049896;28;20033;-76
2022/10/04 08:06:22;;;;;;;11.02;5.22;;;12.40;99.90;;;;;;5049716;28;20029;-72
2022/10/04 08:09:09;;;;;;;13.05;4.90;;;12.30;99.90;;;;;;5031841;28;20036;-73
2022/10/04 08:11:50;;;;;;;12.73;5.28;;;12.30;99.90;;;;;;5031845;28;20035;-71
2022/10/04 08:14:51;;;;;;;13.02;4.75;;;12.40;99.90;;;;;;5050345;28;20609;-71
2022/10/04 08:18:04;;;;;;;8.63;5.32;;;12.40;99.90;;;;;;5049840;28;20044;-71
2022/10/04 08:20:46;;;;;;;11.23;4.70;;;12.40;99.90;;;;;;5032861;28;20181;-71
2022/10/04 08:23:31;;;;;;;11.35;5.00;;;12.50;99.90;;;;;;5050296;28;20453;-71
2022/10/04 08:26:12;;;;;;;11.25;5.43;;;12.60;99.90;;;;;;5049516;28;20072;-72
2022/10/04 08:31:58;;;;;;;9.38;4.70;;;12.70;99.90;;;;;;5050486;28;20031;-72
2022/10/04 08:34:37;;;;;;;10.67;5.23;;;12.70;99.90;;;;;;5050906;28;20070;-72
2022/10/04 08:37:24;;;;;;;13.35;5.32;;;12.80;99.90;;;;;;5032732;28;20131;-72
2022/10/04 08:39:57;;;;;;;7.50;4.53;;;12.90;99.90;;;;;;5049617;28;20508;-72
2022/10/04 08:42:34;;;;;;;7.85;4.50;;;12.90;99.90;;;;;;5049557;28;20067;-73
2022/10/04 08:45:36;;;;;;;10.50;4.85;;;13.00;99.90;;;;;;5050266;28;20025;-73
2022/10/04 08:48:09;;;;;;;9.13;4.75;;;13.00;99.90;;;;;;5032498;28;20090;-72
2022/10/04 08:50:47;;;;;;;7.35;3.95;;;13.00;99.90;;;;;;5031722;28;20112;-73
2022/10/04 08:53:31;;;;;;;8.40;4.60;;;13.00;99.90;;;;;;5049959;28;20443;-73
2022/10/04 08:56:16;;;;;;;7.70;4.10;;;13.10;99.90;;;;;;5014496;28;20036;-73
2022/10/04 08:58:51;;;;;;;12.45;5.07;;;13.10;99.90;;;;;;5049922;28;20041;-71
2022/10/04 09:01:17;;;;;;;11.50;4.65;;;13.10;99.90;;;;;;5050407;28;20029;-73
2022/10/04 09:04:21;;;;;;;10.25;3.92;;;13.10;99.90;;;;;;5032776;28;20499;-73
2022/10/04 09:07:16;;;;;;;12.15;4.68;;;13.20;99.90;;;;;;5052877;28;20025;-72
2022/10/04 09:10:24;;;;;;;12.98;6.05;;;13.20;99.90;;;;;;5053229;28;20605;-73
2022/10/04 09:13:29;;;;;;;12.73;5.30;;;13.20;99.90;;;;;;5042883;28;20045;-72
2022/10/04 09:16:16;;;;;;;7.97;4.53;;;13.30;99.90;;;;;;5035590;28;20484;-72
2022/10/04 09:19:03;;;;;;;9.85;4.35;;;13.30;99.90;;;;;;5054932;28;20032;-72
2022/10/04 09:21:42;;;;;;;8.30;4.22;;;13.30;99.90;;;;;;5036946;28;20044;-72
2022/10/04 09:24:17;;;;;;;9.98;4.15;;;13.30;99.90;;;;;;5053473;28;20029;-72
2022/10/04 09:26:46;;;;;;;8.82;4.25;;;13.30;99.90;;;;;;5053136;28;20087;-72
2022/10/04 09:29:43;;;;;;;9.20;4.03;;;13.40;99.90;;;;;;5035852;28;20107;-73
2022/10/04 09:32:18;;;;;;;9.30;4.30;;;13.40;99.90;;;;;;5018947;28;20037;-72
2022/10/04 09:35:11;;;;;;;9.35;4.90;;;13.40;99.90;;;;;;5035441;28;20112;-73
2022/10/04 09:38:15;;;;;;;9.35;5.05;;;13.50;99.90;;;;;;5052103;28;20489;-73
2022/10/04 09:41:19;;;;;;;13.60;6.10;;;13.50;99.90;;;;;;5051198;28;20033;-73
2022/10/04 09:43:44;;;;;;;10.57;5.07;;;13.60;99.90;;;;;;5052063;28;20118;-72
2022/10/04 09:46:18;;;;;;;11.00;4.65;;;13.60;99.90;;;;;;5051418;28;20453;-74
2022/10/04 09:48:54;;;;;;;9.07;4.40;;;13.60;99.90;;;;;;5051914;28;20056;-72
2022/10/04 09:52:00;;;;;;;9.23;4.68;;;13.60;99.90;;;;;;5051720;28;20025;-73
2022/10/04 09:55:04;;;;;;;8.18;4.30;;;13.60;99.90;;;;;;5049183;28;20497;-72
2022/10/04 09:57:45;;;;;;;9.55;4.55;;;13.70;99.90;;;;;;5051587;28;20036;-74
2022/10/04 10:00:23;;;;;;;7.03;3.78;;;13.70;99.90;;;;;;5051341;28;20048;-68
2022/10/04 10:03:17;;;;;;;16.17;4.75;;;13.80;99.90;;;;;;5033296;28;20123;-68
2022/10/04 10:06:02;;;;;;;9.43;3.90;;;13.90;99.90;;;;;;5032852;28;20132;-67
2022/10/04 10:08:47;;;;;;;9.57;4.10;;;13.90;99.90;;;;;;5051507;28;20029;-67
2022/10/04 10:14:38;;;;;;;9.30;4.05;;;14.00;99.90;;;;;;5033327;28;20041;-67
2022/10/04 10:17:43;;;;;;;8.98;4.15;;;14.00;99.90;;;;;;5050052;28;20461;-68
2022/10/04 10:20:39;;;;;;;9.02;4.30;;;14.10;99.90;;;;;;5050883;28;20036;-69
2022/10/04 10:23:36;;;;;;;8.73;4.97;;;14.10;99.90;;;;;;5033020;28;20052;-69
2022/10/04 10:26:28;;;;;;;9.02;4.68;;;14.10;99.90;;;;;;5050387;28;20117;-68
2022/10/04 10:29:03;;;;;;;9.70;4.65;;;14.10;99.90;;;;;;5070890;28;20516;-69
2022/10/04 10:31:44;;;;;;;7.53;4.50;;;14.10;99.90;;;;;;5070767;28;20031;-70
2022/10/04 10:34:35;;;;;;;8.25;4.63;;;14.20;99.90;;;;;;5071244;28;20063;-68
2022/10/04 10:37:35;;;;;;;8.85;3.88;;;14.20;99.90;;;;;;5070191;28;20035;-71
2022/10/04 10:40:04;;;;;;;10.15;4.22;;;14.30;99.90;;;;;;5070401;28;20102;-71
2022/10/04 10:43:12;;;;;;;9.38;4.13;;;14.30;99.90;;;;;;5070438;28;20028;-71
2022/10/04 10:46:06;;;;;;;7.53;4.10;;;14.40;99.90;;;;;;5070388;28;20457;-71
2022/10/04 10:48:46;;;;;;;10.90;4.38;;;14.40;99.90;;;;;;5070031;28;20048;-71
2022/10/04 10:52:05;;;;;;;9.55;4.18;;;14.40;99.90;;;;;;5070266;28;20028;-72
2022/10/04 10:55:02;;;;;;;7.15;3.85;;;14.50;99.90;;;;;;4989404;28;20061;-72
2022/10/04 10:58:05;;;;;;;8.65;3.92;;;14.50;99.90;;;;;;5049239;28;20033;-72
2022/10/04 11:00:57;;;;;;;9.80;4.75;;;14.40;99.90;;;;;;5049142;28;20064;-72
2022/10/04 11:03:39;;;;;;;9.40;4.70;;;14.50;99.90;;;;;;5048123;28;20033;-73
2022/10/04 11:06:40;;;;;;;10.40;4.28;;;14.40;99.90;;;;;;5048442;28;20390;-72
2022/10/04 11:09:50;;;;;;;9.73;3.92;;;14.50;99.90;;;;;;5056377;22;20471;-72
2022/10/04 11:12:53;;;;;;;13.30;5.45;;;14.60;99.90;;;;;;5074998;28;20027;-72
2022/10/04 11:15:43;;;;;;;8.73;5.07;;;14.60;99.90;;;;;;5068892;28;20029;-72
2022/10/04 11:18:38;;;;;;;8.82;4.40;;;14.70;99.90;;;;;;5069640;28;20039;-71
2022/10/04 11:21:07;;;;;;;10.50;4.32;;;14.80;99.90;;;;;;5069644;28;20038;-70
2022/10/04 11:24:12;;;;;;;11.77;4.97;;;14.90;99.90;;;;;;5068653;28;20021;-68
2022/10/04 11:27:00;;;;;;;8.82;4.50;;;15.10;99.90;;;;;;5068580;28;20097;-72
2022/10/04 11:29:44;;;;;;;9.07;4.10;;;15.10;99.90;;;;;;5069465;28;20021;-72
2022/10/04 11:32:53;;;;;;;6.78;2.80;;;15.10;99.90;;;;;;5069051;28;20486;-70
2022/10/04 11:35:33;;;;;;;11.30;4.30;;;15.00;99.90;;;;;;5065105;28;20025;-69
2022/10/04 11:38:26;;;;;;;8.45;4.40;;;14.80;99.90;;;;;;5068861;28;20488;-68
2022/10/04 11:41:10;;;;;;;11.52;5.13;;;14.70;99.90;;;;;;5068617;28;20036;-69
2022/10/04 11:44:02;;;;;;;8.32;4.45;;;14.60;99.90;;;;;;5056780;28;20056;-70
2022/10/04 11:46:34;;;;;;;9.23;4.53;;;14.50;99.90;;;;;;5068902;28;20056;-69
2022/10/04 11:49:22;;;;;;;9.30;4.68;;;14.40;99.90;;;;;;5068978;28;20040;-69
2022/10/04 11:51:54;;;;;;;9.80;4.85;;;14.40;99.90;;;;;;5068876;28;20029;-69
2022/10/04 11:54:49;;;;;;;10.05;4.45;;;14.30;99.90;;;;;;5068295;28;20138;-69
2022/10/04 11:57:35;;;;;;;9.88;5.13;;;14.40;99.90;;;;;;5068671;28;20093;-69
2022/10/04 12:00:16;;;;;;;9.43;4.10;;;14.30;99.90;;;;;;5069447;28;20032;-70
2022/10/04 12:03:08;;;;;;;7.78;4.00;;;14.30;99.90;;;;;;5068843;28;20496;-70
2022/10/04 12:05:52;;;;;;;10.32;4.50;;;14.30;99.90;;;;;;5068676;28;20039;-70
2022/10/04 12:08:27;;;;;;;7.32;3.58;;;14.40;99.90;;;;;;5068685;28;20039;-70
2022/10/04 12:11:02;;;;;;;9.02;5.00;;;14.40;99.90;;;;;;5067974;28;20017;-70
2022/10/04 12:13:57;;;;;;;9.30;4.75;;;14.40;99.90;;;;;;5068247;28;20033;-70
2022/10/04 12:16:51;;;;;;;9.35;4.35;;;14.30;99.90;;;;;;5065562;28;20607;-70
2022/10/04 12:19:38;;;;;;;11.23;4.80;;;14.30;99.90;;;;;;5068474;28;20117;-69
2022/10/04 12:22:26;;;;;;;9.52;4.53;;;14.40;99.90;;;;;;5068592;28;20063;-67
2022/10/04 12:25:11;;;;;;;9.82;4.35;;;14.70;99.90;;;;;;5067778;28;20033;-69
2022/10/04 12:27:45;;;;;;;8.38;3.63;;;14.90;99.90;;;;;;5068333;28;20435;-70
2022/10/04 12:30:24;;;;;;;10.15;4.38;;;15.00;99.90;;;;;;5068576;28;20033;-69
2022/10/04 12:32:56;;;;;;;10.02;3.92;;;15.00;99.90;;;;;;5068470;28;20047;-70
2022/10/04 12:35:27;;;;;;;9.15;4.40;;;15.00;99.90;;;;;;5068930;28;20092;-69
2022/10/04 12:38:12;;;;;;;10.13;4.65;;;15.00;99.90;;;;;;5069070;28;20070;-70
2022/10/04 12:41:13;;;;;;;8.35;5.43;;;14.80;99.90;;;;;;5070875;28;20060;-70
2022/10/04 12:43:44;;;;;;;10.68;4.68;;;14.70;99.90;;;;;;5016388;28;20079;-70
2022/10/04 12:46:51;;;;;;;6.97;3.75;;;14.60;99.90;;;;;;5070802;28;20077;-70
2022/10/04 12:49:55;;;;;;;8.35;4.35;;;14.60;99.90;;;;;;5071893;28;20060;-71
2022/10/04 12:52:28;;;;;;;12.70;6.22;;;14.70;99.90;;;;;;5072714;28;20389;-71
2022/10/04 12:55:20;;;;;;;8.95;4.80;;;14.60;99.90;;;;;;5071836;28;20103;-70
2022/10/04 12:58:02;;;;;;;7.80;4.13;;;14.60;99.90;;;;;;5067141;28;20036;-71
2022/10/04 13:00:34;;;;;;;8.43;4.60;;;14.70;99.90;;;;;;5071673;28;20033;-71
2022/10/04 13:03:00;;;;;;;13.32;5.95;;;14.80;99.90;;;;;;5071168;28;20062;-70
2022/10/04 13:05:45;;;;;;;8.32;4.80;;;14.80;99.90;;;;;;5071944;28;20040;-70
2022/10/04 13:08:39;;;;;;;11.10;4.63;;;14.90;99.90;;;;;;5071941;28;20539;-70
2022/10/04 13:11:19;;;;;;;12.43;4.65;;;14.90;99.90;;;;;;5071167;28;20193;-69
2022/10/04 13:14:19;;;;;;;9.20;5.10;;;15.00;99.90;;;;;;5071341;28;20419;-69
2022/10/04 13:17:00;;;;;;;10.43;4.85;;;14.90;99.90;;;;;;5071231;28;20025;-70
2022/10/04 13:19:51;;;;;;;10.25;5.03;;;14.90;99.90;;;;;;5072042;28;20034;-69
2022/10/04 13:22:26;;;;;;;12.07;5.70;;;15.00;99.90;;;;;;5053504;28;20064;-69
2022/10/04 13:25:28;;;;;;;8.02;4.57;;;14.90;99.90;;;;;;5070900;28;20488;-69
2022/10/04 13:28:04;;;;;;;8.88;4.90;;;14.90;99.90;;;;;;5071273;28;20029;-70
2022/10/04 13:30:59;;;;;;;7.45;4.22;;;14.90;99.90;;;;;;5053879;28;20032;-69
2022/10/04 13:33:51;;;;;;;11.88;5.53;;;15.00;99.90;;;;;;5070593;28;20071;-70
2022/10/04 13:36:39;;;;;;;10.82;5.80;;;15.10;99.90;;;;;;5071083;28;20666;-69
2022/10/04 13:39:12;;;;;;;10.55;4.88;;;15.00;99.90;;;;;;5053726;28;20040;-70
2022/10/04 13:42:07;;;;;;;13.38;4.93;;;15.00;99.90;;;;;;5053163;28;20428;-69
2022/10/04 13:45:22;;;;;;;9.82;4.90;;;15.10;99.90;;;;;;5023303;28;20044;-70
2022/10/04 13:48:10;;;;;;;8.60;4.43;;;15.00;99.90;;;;;;5050823;28;20512;-70
2022/10/04 13:51:04;;;;;;;8.88;4.82;;;15.00;99.90;;;;;;5070851;28;20066;-70
2022/10/04 13:56:54;;;;;;;9.65;5.47;;;15.00;99.90;;;;;;5070568;28;20060;-70
2022/10/04 13:59:31;;;;;;;8.23;4.20;;;14.90;99.90;;;;;;5071450;28;20040;-69
2022/10/04 14:02:12;;;;;;;8.55;4.43;;;14.80;99.90;;;;;;5071543;28;20095;-70
2022/10/04 14:04:56;;;;;;;11.00;5.13;;;14.90;99.90;;;;;;5069937;28;20028;-70